Time;durP1;ratioP1;P1;durP2;ratioP2;P2;SDS_P1;SDS_P2;PMS_P1;PMS_P2;Temp;Humidity;BMP_temperature;BMP_pressure;BME280_temperature;BME280_humidity;BME280_pressure;Samples;Min_cycle;Max_cycle;Signal;HPM_P1;HPM_P2
2023/10/09 00:01:26;;;;;;;12.8;3.5;;;;;;;;;;;;;
2023/10/09 00:03:53;;;;;;;15;3.7;;;;;;;;;;;;;
2023/10/09 00:06:23;;;;;;;12.3;4.1;;;;;;;;;;;;;
2023/10/09 00:08:44;;;;;;;10.3;3.6;;;;;;;;;;;;;
2023/10/09 00:11:16;;;;;;;12.3;3.8;;;;;;;;;;;;;
2023/10/09 00:13:32;;;;;;;7.4;3.3;;;;;;;;;;;;;
2023/10/09 00:16:00;;;;;;;8.4;3.9;;;;;;;;;;;;;
2023/10/09 00:18:29;;;;;;;11.3;3.6;;;;;;;;;;;;;
2023/10/09 00:20:54;;;;;;;14.2;4;;;;;;;;;;;;;
2023/10/09 00:23:15;;;;;;;12.5;3.9;;;;;;;;;;;;;
2023/10/09 00:25:44;;;;;;;9.4;3.3;;;;;;;;;;;;;
2023/10/09 00:28:05;;;;;;;16.3;4;;;;;;;;;;;;;
2023/10/09 00:30:29;;;;;;;9.2;3.5;;;;;;;;;;;;;
2023/10/09 00:32:59;;;;;;;9.3;3.7;;;;;;;;;;;;;
2023/10/09 00:37:45;;;;;;;10.6;4;;;;;;;;;;;;;
2023/10/09 00:40:22;;;;;;;12;3.6;;;;;;;;;;;;;
2023/10/09 00:42:37;;;;;;;9;3.4;;;;;;;;;;;;;
2023/10/09 00:45:03;;;;;;;11.2;3.7;;;;;;;;;;;;;
2023/10/09 00:47:26;;;;;;;12.3;3.7;;;;;;;;;;;;;
2023/10/09 00:49:54;;;;;;;11.2;3.9;;;;;;;;;;;;;
2023/10/09 00:52:22;;;;;;;12.9;4.2;;;;;;;;;;;;;
2023/10/09 00:54:41;;;;;;;8;3.5;;;;;;;;;;;;;
2023/10/09 00:57:07;;;;;;;12.5;3.7;;;;;;;;;;;;;
2023/10/09 00:59:34;;;;;;;10.8;3.5;;;;;;;;;;;;;
2023/10/09 01:01:58;;;;;;;10.3;3.6;;;;;;;;;;;;;
2023/10/09 01:04:22;;;;;;;9.1;3.7;;;;;;;;;;;;;
2023/10/09 01:07:04;;;;;;;14;4.1;;;;;;;;;;;;;
2023/10/09 01:09:16;;;;;;;9.2;3.7;;;;;;;;;;;;;
2023/10/09 01:11:47;;;;;;;12.6;3.9;;;;;;;;;;;;;
2023/10/09 01:14:13;;;;;;;9.3;3.4;;;;;;;;;;;;;
2023/10/09 01:16:31;;;;;;;10.8;3.6;;;;;;;;;;;;;
2023/10/09 01:18:57;;;;;;;9.2;3.7;;;;;;;;;;;;;
2023/10/09 01:21:24;;;;;;;12.2;3.8;;;;;;;;;;;;;
2023/10/09 01:24:03;;;;;;;12.7;3.6;;;;;;;;;;;;;
2023/10/09 01:26:13;;;;;;;12.7;4.4;;;;;;;;;;;;;
2023/10/09 01:28:38;;;;;;;10.6;3.8;;;;;;;;;;;;;
2023/10/09 01:31:06;;;;;;;10;3.1;;;;;;;;;;;;;
2023/10/09 01:33:30;;;;;;;11;4;;;;;;;;;;;;;
2023/10/09 01:35:59;;;;;;;10;3.8;;;;;;;;;;;;;
2023/10/09 01:38:30;;;;;;;9.8;3.3;;;;;;;;;;;;;
2023/10/09 01:40:44;;;;;;;10.4;3.5;;;;;;;;;;;;;
2023/10/09 01:43:18;;;;;;;9.1;3.5;;;;;;;;;;;;;
2023/10/09 01:45:41;;;;;;;11.2;4.2;;;;;;;;;;;;;
2023/10/09 01:48:04;;;;;;;11.9;3.6;;;;;;;;;;;;;
2023/10/09 01:50:30;;;;;;;9.2;3.8;;;;;;;;;;;;;
2023/10/09 01:52:51;;;;;;;10.2;3.5;;;;;;;;;;;;;
2023/10/09 01:55:29;;;;;;;9.1;3.5;;;;;;;;;;;;;
2023/10/09 01:57:44;;;;;;;15;4.3;;;;;;;;;;;;;
2023/10/09 02:00:08;;;;;;;8.8;3.4;;;;;;;;;;;;;
2023/10/09 02:02:33;;;;;;;13.6;3.6;;;;;;;;;;;;;
2023/10/09 02:05:07;;;;;;;13.3;3.8;;;;;;;;;;;;;
2023/10/09 02:07:27;;;;;;;8.1;3.3;;;;;;;;;;;;;
2023/10/09 02:09:49;;;;;;;8.5;3.4;;;;;;;;;;;;;
2023/10/09 02:12:14;;;;;;;11.4;3.3;;;;;;;;;;;;;
2023/10/09 02:14:41;;;;;;;11.2;3;;;;;;;;;;;;;
2023/10/09 02:17:09;;;;;;;7.3;3.4;;;;;;;;;;;;;
2023/10/09 02:19:34;;;;;;;11.1;3.3;;;;;;;;;;;;;
2023/10/09 02:21:56;;;;;;;11.1;3.9;;;;;;;;;;;;;
2023/10/09 02:24:41;;;;;;;10.4;3.2;;;;;;;;;;;;;
2023/10/09 02:27:06;;;;;;;10.1;3.5;;;;;;;;;;;;;
2023/10/09 02:29:15;;;;;;;11.2;3.8;;;;;;;;;;;;;
2023/10/09 02:31:40;;;;;;;9.7;3;;;;;;;;;;;;;
2023/10/09 02:34:11;;;;;;;12;3.3;;;;;;;;;;;;;
2023/10/09 02:36:28;;;;;;;10.9;3.3;;;;;;;;;;;;;
2023/10/09 02:38:53;;;;;;;7.4;3.1;;;;;;;;;;;;;
2023/10/09 03:51:52;;;;;;;11.8;3.9;;;;;;;;;;;;;
2023/10/09 03:54:20;;;;;;;10.8;3.6;;;;;;;;;;;;;
2023/10/09 03:56:42;;;;;;;12.9;3.8;;;;;;;;;;;;;
2023/10/09 03:59:10;;;;;;;10.8;4.1;;;;;;;;;;;;;
2023/10/09 04:02:35;;;;;;;12.9;5.4;;;;;;;12.39;89.42676;943.9648;;;;
2023/10/09 04:05:00;;;;;;;14.3;4.5;;;;;;;12.42;89.125;943.9807;;;;
2023/10/09 04:07:25;;;;;;;14.2;3.8;;;;;;;12.32;89.43652;943.9392;;;;
2023/10/09 04:10:12;;;;;;;13.9;3.6;;;;;;;12.29;89.93359;943.9821;;;;
2023/10/09 04:12:30;;;;;;;12;3.5;;;;;;;12.3;89.74023;943.8855;;;;
2023/10/09 04:14:48;;;;;;;10.7;3.8;;;;;;;12.22;89.79492;943.9788;;;;
2023/10/09 04:17:32;;;;;;;11.1;3.8;;;;;;;12.16;90.02246;943.8956;;;;
2023/10/09 04:19:38;;;;;;;10.7;3.3;;;;;;;12.23;89.78516;943.9055;;;;
2023/10/09 04:21:58;;;;;;;13.1;3.1;;;;;;;12.26;89.41406;943.8842;;;;
2023/10/09 04:24:27;;;;;;;10.8;3.3;;;;;;;12.29;89.25879;943.8567;;;;
2023/10/09 04:26:46;;;;;;;10.3;3.4;;;;;;;12.22;89.20996;943.8422;;;;
2023/10/09 04:29:18;;;;;;;9.5;3.2;;;;;;;12.24;89.27051;943.8353;;;;
2023/10/09 04:31:37;;;;;;;12.6;3;;;;;;;12.3;88.80273;943.8153;;;;
2023/10/09 04:36:36;;;;;;;11.6;3.4;;;;;;;12.11;89.57715;943.7623;;;;
2023/10/09 04:39:15;;;;;;;10;3.4;;;;;;;12.15;89.46973;943.7684;;;;
2023/10/09 04:41:27;;;;;;;6.9;3;;;;;;;12.18;88.86816;943.7927;;;;
2023/10/09 04:43:44;;;;;;;14.6;5;;;;;;;12.15;88.81641;943.7556;;;;
2023/10/09 04:46:12;;;;;;;11.3;4.8;;;;;;;12.15;89.01367;943.7182;;;;
2023/10/09 04:48:38;;;;;;;12.2;3.5;;;;;;;12.1;89.1377;943.7542;;;;
2023/10/09 04:51:33;;;;;;;14.7;4;;;;;;;12.11;89.03906;943.7608;;;;
2023/10/09 04:53:28;;;;;;;12.2;3.7;;;;;;;12.18;88.66211;943.6618;;;;
2023/10/09 04:56:04;;;;;;;11.9;3.8;;;;;;;12.05;89.45898;943.6602;;;;
2023/10/09 04:58:23;;;;;;;8.3;3.6;;;;;;;12.04;89.2627;943.7662;;;;
2023/10/09 05:01:03;;;;;;;10;3.9;;;;;;;12.06;89.26855;943.7441;;;;
2023/10/09 05:03:12;;;;;;;11.3;3.8;;;;;;;12.06;89.13086;943.741;;;;
2023/10/09 05:06:32;;;;;;;12.3;4.2;;;;;;;11.85;90.00391;943.7197;;;;
2023/10/09 05:08:18;;;;;;;10.5;4.5;;;;;;;11.77;90.47949;943.6638;;;;
2023/10/09 05:10:26;;;;;;;8.2;4.4;;;;;;;11.89;90.02344;943.6835;;;;
2023/10/09 05:12:58;;;;;;;10.3;4.1;;;;;;;12.01;89.32715;943.7177;;;;
2023/10/09 05:15:26;;;;;;;16.8;4;;;;;;;12.1;88.77344;943.6625;;;;
2023/10/09 05:17:55;;;;;;;11.1;3.5;;;;;;;12.07;88.28418;943.682;;;;
2023/10/09 05:20:55;;;;;;;16.1;4.4;;;;;;;12.11;88.53223;943.7151;;;;
2023/10/09 05:22:53;;;;;;;10.7;3.7;;;;;;;12.1;88.02637;943.6664;;;;
2023/10/09 05:25:14;;;;;;;13.9;4.1;;;;;;;12.06;88.51172;943.7537;;;;
2023/10/09 05:27:50;;;;;;;12.9;4.1;;;;;;;12.08;88.49316;943.7477;;;;
2023/10/09 05:30:12;;;;;;;12;4.1;;;;;;;12.06;88.47754;943.717;;;;
2023/10/09 05:32:27;;;;;;;11.6;4.7;;;;;;;12.13;88.11426;943.718;;;;
2023/10/09 05:35:06;;;;;;;12.1;4;;;;;;;12.15;88.41797;943.6959;;;;
2023/10/09 05:37:17;;;;;;;8.7;3.7;;;;;;;11.95;88.9248;943.6611;;;;
2023/10/09 05:39:40;;;;;;;9;3.9;;;;;;;11.81;89.47949;943.6781;;;;
2023/10/09 05:42:09;;;;;;;15.5;3.2;;;;;;;11.98;90.13379;943.7325;;;;
2023/10/09 05:47:22;;;;;;;8.5;3.2;;;;;;;12.27;87.11035;943.6983;;;;
2023/10/09 05:49:24;;;;;;;13.1;3.7;;;;;;;12.23;86.90625;943.6858;;;;
2023/10/09 05:51:53;;;;;;;7.2;3.7;;;;;;;12.17;87.86914;943.7224;;;;
2023/10/09 06:04:04;;;;;;;11.6;4.4;;;;;;;13.09;85.64355;943.7764;;;;
2023/10/09 06:06:18;;;;;;;16.7;6.6;;;;;;;13.11;84.88965;943.8245;;;;
2023/10/09 06:09:11;;;;;;;11.7;5.9;;;;;;;;;;;;;
2023/10/09 06:11:38;;;;;;;13;4.9;;;;;;;;;;;;;
2023/10/09 06:13:41;;;;;;;19.6;5.4;;;;;;;;;;;;;
2023/10/09 06:16:41;;;;;;;15.3;5.9;;;;;;;;;;;;;
2023/10/09 06:18:34;;;;;;;14.3;6.4;;;;;;;;;;;;;
2023/10/09 06:21:07;;;;;;;17.8;5.9;;;;;;;;;;;;;
2023/10/09 06:23:50;;;;;;;14.1;5.8;;;;;;;;;;;;;
2023/10/09 06:25:39;;;;;;;12.7;5.9;;;;;;;;;;;;;
2023/10/09 06:28:03;;;;;;;16.7;5.9;;;;;;;;;;;;;
2023/10/09 06:30:34;;;;;;;14;5.5;;;;;;;;;;;;;
2023/10/09 06:32:58;;;;;;;12.6;5.5;;;;;;;;;;;;;
2023/10/09 06:35:21;;;;;;;13.2;6;;;;;;;;;;;;;
2023/10/09 06:38:21;;;;;;;13.2;5.4;;;;;;;;;;;;;
2023/10/09 06:41:18;;;;;;;13;5.6;;;;;;;;;;;;;
2023/10/09 06:42:43;;;;;;;15.8;5;;;;;;;;;;;;;
2023/10/09 06:44:59;;;;;;;17;5.1;;;;;;;;;;;;;
2023/10/09 06:47:24;;;;;;;12.6;4.4;;;;;;;;;;;;;
2023/10/09 06:50:24;;;;;;;13.4;5.2;;;;;;;;;;;;;
2023/10/09 06:52:56;;;;;;;15.3;4.5;;;;;;;;;;;;;
2023/10/09 06:54:40;;;;;;;13.5;4.7;;;;;;;;;;;;;
2023/10/09 06:57:43;;;;;;;10.1;4.2;;;;;;;;;;;;;
2023/10/09 06:59:41;;;;;;;12;3.8;;;;;;;;;;;;;
2023/10/09 07:02:25;;;;;;;10.9;3.6;;;;;;;;;;;;;
2023/10/09 07:04:45;;;;;;;13.6;4.3;;;;;;;;;;;;;
2023/10/09 07:06:52;;;;;;;16.4;3.7;;;;;;;;;;;;;
2023/10/09 07:09:19;;;;;;;11.1;3.8;;;;;;;;;;;;;
2023/10/09 07:11:59;;;;;;;14.2;4;;;;;;;;;;;;;
2023/10/09 07:14:02;;;;;;;12.1;5;;;;;;;;;;;;;
2023/10/09 07:16:38;;;;;;;10;4.1;;;;;;;;;;;;;
2023/10/09 07:18:54;;;;;;;8.6;3.8;;;;;;;;;;;;;
2023/10/09 07:21:26;;;;;;;13.7;3.7;;;;;;;;;;;;;
2023/10/09 07:23:48;;;;;;;9;3.2;;;;;;;;;;;;;
2023/10/09 07:26:23;;;;;;;11.7;3.1;;;;;;;;;;;;;
2023/10/09 07:28:42;;;;;;;9.8;3.5;;;;;;;;;;;;;
2023/10/09 07:30:59;;;;;;;8.6;2.9;;;;;;;;;;;;;
2023/10/09 07:33:31;;;;;;;12;3.3;;;;;;;;;;;;;
2023/10/09 07:35:57;;;;;;;13.9;3.9;;;;;;;;;;;;;
2023/10/09 07:38:14;;;;;;;11.6;3.3;;;;;;;;;;;;;
2023/10/09 07:40:55;;;;;;;13.1;3.8;;;;;;;;;;;;;
2023/10/09 07:43:16;;;;;;;13.5;3.6;;;;;;;;;;;;;
2023/10/09 07:48:04;;;;;;;10;3;;;;;;;;;;;;;
2023/10/09 07:50:21;;;;;;;12.8;3.2;;;;;;;;;;;;;
2023/10/09 07:52:45;;;;;;;11.5;3.4;;;;;;;;;;;;;
2023/10/09 07:55:25;;;;;;;10.1;3.4;;;;;;;;;;;;;
2023/10/09 07:57:42;;;;;;;8.4;2.7;;;;;;;;;;;;;
2023/10/09 08:00:12;;;;;;;10.6;3;;;;;;;;;;;;;
2023/10/09 08:02:31;;;;;;;18.4;3.7;;;;;;;;;;;;;
2023/10/09 08:04:53;;;;;;;10.7;3.2;;;;;;;;;;;;;
2023/10/09 08:07:19;;;;;;;12.2;2.9;;;;;;;;;;;;;
2023/10/09 08:09:46;;;;;;;14.2;3.3;;;;;;;;;;;;;
2023/10/09 08:14:48;;;;;;;11.2;3.2;;;;;;;;;;;;;
2023/10/09 08:17:11;;;;;;;9.8;3;;;;;;;;;;;;;
2023/10/09 08:19:34;;;;;;;13.9;3.1;;;;;;;;;;;;;
2023/10/09 08:22:07;;;;;;;16.4;3;;;;;;;;;;;;;
2023/10/09 08:24:35;;;;;;;11.4;2.9;;;;;;;;;;;;;
2023/10/09 08:26:47;;;;;;;12.2;3;;;;;;;;;;;;;
2023/10/09 08:29:19;;;;;;;12.3;2.7;;;;;;;;;;;;;
2023/10/09 08:31:45;;;;;;;14.1;2.9;;;;;;;;;;;;;
2023/10/09 08:33:58;;;;;;;18.3;3.1;;;;;;;;;;;;;
2023/10/09 08:36:22;;;;;;;14;3.4;;;;;;;;;;;;;
2023/10/09 08:38:42;;;;;;;10.5;2.6;;;;;;;;;;;;;
2023/10/09 08:41:22;;;;;;;14.1;3.4;;;;;;;;;;;;;
2023/10/09 08:43:39;;;;;;;12.3;2.7;;;;;;;;;;;;;
2023/10/09 08:46:04;;;;;;;12.1;2.6;;;;;;;;;;;;;
2023/10/09 08:48:33;;;;;;;10.6;2.6;;;;;;;;;;;;;
2023/10/09 08:50:58;;;;;;;10.5;3.2;;;;;;;;;;;;;
2023/10/09 08:53:24;;;;;;;11.1;2.7;;;;;;;;;;;;;
2023/10/09 08:55:49;;;;;;;10.9;2.8;;;;;;;;;;;;;
2023/10/09 08:58:19;;;;;;;8.1;2.3;;;;;;;;;;;;;
2023/10/09 09:00:43;;;;;;;14.2;3.1;;;;;;;;;;;;;
2023/10/09 09:03:05;;;;;;;10;2.8;;;;;;;;;;;;;
2023/10/09 09:05:30;;;;;;;8.6;2.9;;;;;;;;;;;;;
2023/10/09 09:07:59;;;;;;;11;2.9;;;;;;;;;;;;;
2023/10/09 09:10:22;;;;;;;12.2;2.7;;;;;;;;;;;;;
2023/10/09 09:12:47;;;;;;;15;3.2;;;;;;;;;;;;;
2023/10/09 09:15:12;;;;;;;9;2.4;;;;;;;;;;;;;
2023/10/09 09:17:41;;;;;;;13.1;3.1;;;;;;;;;;;;;
2023/10/09 09:20:04;;;;;;;9.8;2.8;;;;;;;;;;;;;
2023/10/09 09:22:30;;;;;;;11.3;2.8;;;;;;;;;;;;;
2023/10/09 09:25:00;;;;;;;9.4;3.2;;;;;;;;;;;;;
2023/10/09 09:27:20;;;;;;;9.6;2.2;;;;;;;;;;;;;
2023/10/09 09:29:52;;;;;;;14.1;3;;;;;;;;;;;;;
2023/10/09 09:32:18;;;;;;;8.6;2.5;;;;;;;;;;;;;
2023/10/09 09:34:35;;;;;;;13.4;3.3;;;;;;;;;;;;;
2023/10/09 09:37:04;;;;;;;10.9;2.9;;;;;;;;;;;;;
2023/10/09 09:39:29;;;;;;;10.5;2.8;;;;;;;;;;;;;
2023/10/09 09:41:52;;;;;;;12.6;3;;;;;;;;;;;;;
2023/10/09 09:44:18;;;;;;;12.4;3;;;;;;;;;;;;;
2023/10/09 09:46:42;;;;;;;11.6;3;;;;;;;;;;;;;
2023/10/09 09:49:16;;;;;;;10.4;3.2;;;;;;;;;;;;;
2023/10/09 09:51:34;;;;;;;15.7;3.5;;;;;;;;;;;;;
2023/10/09 09:53:59;;;;;;;11.6;2.9;;;;;;;;;;;;;
2023/10/09 09:56:24;;;;;;;15.9;3.5;;;;;;;;;;;;;
2023/10/09 09:58:53;;;;;;;9.3;2.6;;;;;;;;;;;;;
2023/10/09 10:01:24;;;;;;;12.9;2.9;;;;;;;;;;;;;
2023/10/09 10:03:43;;;;;;;11.9;3.3;;;;;;;;;;;;;
2023/10/09 10:06:10;;;;;;;10.5;3;;;;;;;;;;;;;
2023/10/09 10:08:33;;;;;;;13.2;3;;;;;;;;;;;;;
2023/10/09 10:11:04;;;;;;;8.9;2.6;;;;;;;;;;;;;
2023/10/09 10:13:27;;;;;;;11.3;2.6;;;;;;;;;;;;;
2023/10/09 10:16:00;;;;;;;13.7;3.3;;;;;;;;;;;;;
2023/10/09 10:18:25;;;;;;;11.6;3;;;;;;;;;;;;;
2023/10/09 10:20:53;;;;;;;10.1;3.1;;;;;;;;;;;;;
2023/10/09 10:23:25;;;;;;;11;2.7;;;;;;;;;;;;;
2023/10/09 10:27:32;;;;;;;10.5;3;;;;;;;;;;;;;
2023/10/09 10:29:55;;;;;;;12.5;2.9;;;;;;;;;;;;;
2023/10/09 10:32:23;;;;;;;7.6;2.4;;;;;;;;;;;;;
2023/10/09 10:34:46;;;;;;;8.2;2.4;;;;;;;;;;;;;
2023/10/09 10:37:13;;;;;;;11.1;3.1;;;;;;;;;;;;;
2023/10/09 10:39:44;;;;;;;11.1;2.6;;;;;;;;;;;;;
2023/10/09 10:42:04;;;;;;;9;2.4;;;;;;;;;;;;;
2023/10/09 10:44:36;;;;;;;12.3;2.2;;;;;;;;;;;;;
2023/10/09 10:46:53;;;;;;;13.4;2.5;;;;;;;;;;;;;
2023/10/09 10:49:21;;;;;;;11.8;2.6;;;;;;;;;;;;;
2023/10/09 10:51:47;;;;;;;9.4;2.6;;;;;;;;;;;;;
2023/10/09 10:56:36;;;;;;;9.1;2.2;;;;;;;;;;;;;
2023/10/09 10:59:13;;;;;;;10;2.4;;;;;;;;;;;;;
2023/10/09 11:01:24;;;;;;;12;2.9;;;;;;;;;;;;;
2023/10/09 11:04:09;;;;;;;12.1;2.3;;;;;;;;;;;;;
2023/10/09 11:06:15;;;;;;;12.2;3.3;;;;;;;;;;;;;
2023/10/09 11:08:50;;;;;;;9.1;2.2;;;;;;;;;;;;;
2023/10/09 11:11:05;;;;;;;6.9;3.2;;;;;;;;;;;;;
2023/10/09 11:13:52;;;;;;;10.4;3.2;;;;;;;;;;;;;
2023/10/09 11:16:14;;;;;;;13.8;3;;;;;;;;;;;;;
2023/10/09 11:18:26;;;;;;;7;2.7;;;;;;;;;;;;;
2023/10/09 11:21:40;;;;;;;11.5;2.6;;;;;;;;;;;;;
2023/10/09 11:23:35;;;;;;;9.9;2.3;;;;;;;;;;;;;
2023/10/09 11:25:59;;;;;;;8.7;2.5;;;;;;;;;;;;;
2023/10/09 11:28:27;;;;;;;10.7;3.1;;;;;;;;;;;;;
2023/10/09 11:30:34;;;;;;;12.8;2.3;;;;;;;;;;;;;
2023/10/09 11:32:59;;;;;;;6.6;2.2;;;;;;;;;;;;;
2023/10/09 11:35:28;;;;;;;7.7;2.1;;;;;;;;;;;;;
2023/10/09 11:37:49;;;;;;;9.6;2.3;;;;;;;;;;;;;
2023/10/09 11:40:28;;;;;;;9.8;2.8;;;;;;;;;;;;;
2023/10/09 11:43:12;;;;;;;9.7;2.2;;;;;;;;;;;;;
2023/10/09 11:45:37;;;;;;;11.1;2.5;;;;;;;;;;;;;
2023/10/09 11:48:00;;;;;;;10.1;2.4;;;;;;;;;;;;;
2023/10/09 11:50:18;;;;;;;11.5;2.5;;;;;;;;;;;;;
2023/10/09 11:52:56;;;;;;;10.2;2.7;;;;;;;;;;;;;
2023/10/09 11:55:14;;;;;;;11;2.7;;;;;;;;;;;;;
2023/10/09 11:57:33;;;;;;;7.7;2.4;;;;;;;;;;;;;
2023/10/09 12:00:05;;;;;;;8.8;2.4;;;;;;;;;;;;;
2023/10/09 12:02:26;;;;;;;10.5;2.7;;;;;;;;;;;;;
2023/10/09 12:04:51;;;;;;;14.1;2.9;;;;;;;;;;;;;
2023/10/09 12:07:20;;;;;;;8.2;2.5;;;;;;;;;;;;;
2023/10/09 12:09:42;;;;;;;8.5;2.7;;;;;;;;;;;;;
2023/10/09 12:12:07;;;;;;;15;2.8;;;;;;;;;;;;;
2023/10/09 12:14:35;;;;;;;13.6;3.5;;;;;;;;;;;;;
2023/10/09 12:16:59;;;;;;;10.5;2.8;;;;;;;;;;;;;
2023/10/09 12:19:24;;;;;;;10.1;2.3;;;;;;;;;;;;;
2023/10/09 12:21:50;;;;;;;12.4;2.6;;;;;;;;;;;;;
2023/10/09 12:24:18;;;;;;;10.8;2.4;;;;;;;;;;;;;
2023/10/09 12:26:42;;;;;;;10.6;2.6;;;;;;;;;;;;;
2023/10/09 12:29:10;;;;;;;8.5;2.3;;;;;;;;;;;;;
2023/10/09 12:31:35;;;;;;;8.4;2.1;;;;;;;;;;;;;
2023/10/09 12:33:59;;;;;;;12.1;3.1;;;;;;;;;;;;;
2023/10/09 12:36:27;;;;;;;9.8;2.3;;;;;;;;;;;;;
2023/10/09 12:38:58;;;;;;;12.7;2.7;;;;;;;;;;;;;
2023/10/09 12:41:25;;;;;;;11.5;2.8;;;;;;;;;;;;;
2023/10/09 12:43:44;;;;;;;11.1;2.5;;;;;;;;;;;;;
2023/10/09 12:46:15;;;;;;;14.3;2.9;;;;;;;;;;;;;
2023/10/09 12:48:35;;;;;;;9.8;2.8;;;;;;;;;;;;;
2023/10/09 12:51:06;;;;;;;9.4;2.4;;;;;;;;;;;;;
2023/10/09 12:53:29;;;;;;;16.2;2.7;;;;;;;;;;;;;
2023/10/09 12:55:56;;;;;;;11.7;3.4;;;;;;;;;;;;;
2023/10/09 12:58:21;;;;;;;6.5;2.4;;;;;;;;;;;;;
2023/10/09 13:00:50;;;;;;;16.8;3.1;;;;;;;;;;;;;
2023/10/09 13:03:16;;;;;;;17.4;2.9;;;;;;;;;;;;;
2023/10/09 13:05:35;;;;;;;10.6;2.7;;;;;;;;;;;;;
2023/10/09 13:08:02;;;;;;;10.8;2.4;;;;;;;;;;;;;
2023/10/09 13:10:31;;;;;;;9.3;2.3;;;;;;;;;;;;;
2023/10/09 13:12:55;;;;;;;9.6;2.2;;;;;;;;;;;;;
2023/10/09 13:15:20;;;;;;;9.6;2.5;;;;;;;;;;;;;
2023/10/09 13:17:46;;;;;;;11.8;2.8;;;;;;;;;;;;;
2023/10/09 13:20:12;;;;;;;14.1;2.3;;;;;;;;;;;;;
2023/10/09 13:22:34;;;;;;;8.8;2.7;;;;;;;;;;;;;
2023/10/09 13:25:04;;;;;;;13.3;2.5;;;;;;;;;;;;;
2023/10/09 13:27:24;;;;;;;15.8;3.2;;;;;;;;;;;;;
2023/10/09 13:29:52;;;;;;;9.6;2.6;;;;;;;;;;;;;
2023/10/09 13:32:16;;;;;;;13.1;2.3;;;;;;;;;;;;;
2023/10/09 13:34:44;;;;;;;10.3;2.6;;;;;;;;;;;;;
2023/10/09 13:37:11;;;;;;;9.5;2.4;;;;;;;;;;;;;
2023/10/09 13:39:38;;;;;;;12.5;2.8;;;;;;;;;;;;;
2023/10/09 13:42:01;;;;;;;12.2;2.7;;;;;;;;;;;;;
2023/10/09 13:44:22;;;;;;;10.5;2.8;;;;;;;;;;;;;
2023/10/09 13:46:50;;;;;;;12.8;3.1;;;;;;;;;;;;;
2023/10/09 13:49:14;;;;;;;13.4;2.3;;;;;;;;;;;;;
2023/10/09 13:51:43;;;;;;;12.8;3;;;;;;;;;;;;;
2023/10/09 13:54:07;;;;;;;10.6;2.9;;;;;;;;;;;;;
2023/10/09 13:56:38;;;;;;;9.2;2.5;;;;;;;;;;;;;
2023/10/09 13:59:00;;;;;;;13.8;3;;;;;;;;;;;;;
2023/10/09 14:01:32;;;;;;;11.4;2.7;;;;;;;;;;;;;
2023/10/09 14:03:52;;;;;;;10.6;2.6;;;;;;;;;;;;;
2023/10/09 14:06:19;;;;;;;12.9;2.6;;;;;;;;;;;;;
2023/10/09 14:08:42;;;;;;;7.2;2.5;;;;;;;;;;;;;
2023/10/09 14:11:07;;;;;;;9.1;2.2;;;;;;;;;;;;;
2023/10/09 14:13:31;;;;;;;10.5;2.4;;;;;;;;;;;;;
2023/10/09 14:15:58;;;;;;;12.7;2.5;;;;;;;;;;;;;
2023/10/09 14:18:24;;;;;;;13.5;2.3;;;;;;;;;;;;;
2023/10/09 14:20:49;;;;;;;11.4;2.7;;;;;;;;;;;;;
2023/10/09 14:23:20;;;;;;;9.2;2.5;;;;;;;;;;;;;
2023/10/09 14:25:40;;;;;;;12.9;2.4;;;;;;;;;;;;;
2023/10/09 14:28:09;;;;;;;10.7;2.8;;;;;;;;;;;;;
2023/10/09 14:30:41;;;;;;;12;2.3;;;;;;;;;;;;;
2023/10/09 14:33:01;;;;;;;9.3;2.8;;;;;;;;;;;;;
2023/10/09 14:35:30;;;;;;;11.1;2.5;;;;;;;;;;;;;
2023/10/09 14:37:51;;;;;;;11.2;2.8;;;;;;;;;;;;;
2023/10/09 14:40:20;;;;;;;10.4;3;;;;;;;;;;;;;
2023/10/09 14:42:43;;;;;;;14.3;2.7;;;;;;;;;;;;;
2023/10/09 14:45:08;;;;;;;9.5;2.5;;;;;;;;;;;;;
2023/10/09 14:47:33;;;;;;;7.2;2.4;;;;;;;;;;;;;
2023/10/09 14:50:01;;;;;;;9.7;2.5;;;;;;;;;;;;;
2023/10/09 14:52:24;;;;;;;11.5;3.1;;;;;;;;;;;;;
2023/10/09 14:54:50;;;;;;;9.2;2.6;;;;;;;;;;;;;
2023/10/09 14:57:13;;;;;;;12;2.5;;;;;;;;;;;;;
2023/10/09 14:59:39;;;;;;;14.2;3.4;;;;;;;;;;;;;
2023/10/09 15:02:05;;;;;;;12;3.1;;;;;;;;;;;;;
2023/10/09 15:04:30;;;;;;;11;2.7;;;;;;;;;;;;;
2023/10/09 15:06:55;;;;;;;11.3;2.6;;;;;;;;;;;;;
2023/10/09 15:09:28;;;;;;;9.3;2.6;;;;;;;;;;;;;
2023/10/09 15:11:45;;;;;;;11.5;3;;;;;;;;;;;;;
2023/10/09 15:14:10;;;;;;;15.4;2.4;;;;;;;;;;;;;
2023/10/09 15:16:38;;;;;;;12.4;3.1;;;;;;;;;;;;;
2023/10/09 15:19:02;;;;;;;15.6;2.9;;;;;;;;;;;;;
2023/10/09 15:21:28;;;;;;;9.2;3;;;;;;;;;;;;;
2023/10/09 15:23:54;;;;;;;9.2;2.8;;;;;;;;;;;;;
2023/10/09 15:26:18;;;;;;;11.9;2.6;;;;;;;;;;;;;
2023/10/09 15:28:43;;;;;;;9.7;2.4;;;;;;;;;;;;;
2023/10/09 15:31:10;;;;;;;9.1;2.8;;;;;;;;;;;;;
2023/10/09 15:33:34;;;;;;;10.6;2.8;;;;;;;;;;;;;
2023/10/09 15:36:02;;;;;;;14.2;2.8;;;;;;;;;;;;;
2023/10/09 15:38:29;;;;;;;10.4;2.7;;;;;;;;;;;;;
2023/10/09 15:40:52;;;;;;;15;2.8;;;;;;;;;;;;;
2023/10/09 15:43:17;;;;;;;10.9;2.8;;;;;;;;;;;;;
2023/10/09 15:45:43;;;;;;;9.5;2.9;;;;;;;;;;;;;
2023/10/09 15:48:07;;;;;;;10.5;3.1;;;;;;;;;;;;;
2023/10/09 15:50:34;;;;;;;8.4;2.8;;;;;;;;;;;;;
2023/10/09 15:52:59;;;;;;;12.8;3;;;;;;;;;;;;;
2023/10/09 15:55:25;;;;;;;7.5;2.5;;;;;;;;;;;;;
2023/10/09 15:57:52;;;;;;;12.2;3.2;;;;;;;;;;;;;
2023/10/09 16:00:18;;;;;;;15.6;3;;;;;;;;;;;;;
2023/10/09 16:02:40;;;;;;;12.1;3.2;;;;;;;;;;;;;
2023/10/09 16:05:05;;;;;;;10.3;2.9;;;;;;;;;;;;;
2023/10/09 16:07:30;;;;;;;11.5;2.7;;;;;;;;;;;;;
2023/10/09 16:09:58;;;;;;;14.4;3.3;;;;;;;;;;;;;
2023/10/09 16:12:20;;;;;;;11.9;3.1;;;;;;;;;;;;;
2023/10/09 16:14:47;;;;;;;13.8;3.4;;;;;;;;;;;;;
2023/10/09 16:17:12;;;;;;;20.6;3.4;;;;;;;;;;;;;
2023/10/09 16:19:38;;;;;;;14.1;3.7;;;;;;;;;;;;;
2023/10/09 16:22:03;;;;;;;14.8;3.2;;;;;;;;;;;;;
2023/10/09 16:24:30;;;;;;;17.4;7.3;;;;;;;;;;;;;
2023/10/09 16:26:55;;;;;;;10.6;5.2;;;;;;;;;;;;;
2023/10/09 16:29:22;;;;;;;11;3.5;;;;;;;;;;;;;
2023/10/09 16:31:46;;;;;;;14.3;3.3;;;;;;;;;;;;;
2023/10/09 16:34:13;;;;;;;12.4;3.1;;;;;;;;;;;;;
2023/10/09 16:36:36;;;;;;;11.5;3.7;;;;;;;;;;;;;
2023/10/09 16:39:01;;;;;;;12.1;3.6;;;;;;;;;;;;;
2023/10/09 16:41:27;;;;;;;7.8;3.1;;;;;;;;;;;;;
2023/10/09 16:43:52;;;;;;;9.9;2.7;;;;;;;;;;;;;
2023/10/09 16:46:17;;;;;;;10.3;2.6;;;;;;;;;;;;;
2023/10/09 16:48:46;;;;;;;7.4;2.8;;;;;;;;;;;;;
2023/10/09 16:51:08;;;;;;;8;2.8;;;;;;;;;;;;;
2023/10/09 16:53:36;;;;;;;13.8;2.9;;;;;;;;;;;;;
2023/10/09 16:55:58;;;;;;;9.6;2.7;;;;;;;;;;;;;
2023/10/09 16:58:23;;;;;;;12.4;3.5;;;;;;;;;;;;;
2023/10/09 17:00:48;;;;;;;16.2;3.3;;;;;;;;;;;;;
2023/10/09 17:03:14;;;;;;;12.6;3.2;;;;;;;;;;;;;
2023/10/09 17:05:55;;;;;;;15.4;3.9;;;;;;;;;;;;;
2023/10/09 17:08:09;;;;;;;10.9;3.4;;;;;;;;;;;;;
2023/10/09 17:10:29;;;;;;;9.4;3.5;;;;;;;;;;;;;
2023/10/09 17:12:54;;;;;;;11.4;2.9;;;;;;;;;;;;;
2023/10/09 17:15:19;;;;;;;11.9;3.1;;;;;;;;;;;;;
2023/10/09 17:17:49;;;;;;;14.6;3.9;;;;;;;;;;;;;
2023/10/09 17:20:09;;;;;;;10.7;3.5;;;;;;;;;;;;;
2023/10/09 17:22:35;;;;;;;13.8;4.7;;;;;;;;;;;;;
2023/10/09 17:25:02;;;;;;;12.1;3.6;;;;;;;;;;;;;
2023/10/09 17:27:26;;;;;;;12;3.8;;;;;;;;;;;;;
2023/10/09 17:29:51;;;;;;;8.2;3.1;;;;;;;;;;;;;
2023/10/09 17:32:16;;;;;;;11.8;3.2;;;;;;;;;;;;;
2023/10/09 17:34:44;;;;;;;11.6;3.6;;;;;;;;;;;;;
2023/10/09 17:37:06;;;;;;;13.2;3.9;;;;;;;;;;;;;
2023/10/09 17:39:31;;;;;;;15;3.6;;;;;;;;;;;;;
2023/10/09 17:41:57;;;;;;;11.4;3.1;;;;;;;;;;;;;
2023/10/09 17:44:23;;;;;;;9.9;3.5;;;;;;;;;;;;;
2023/10/09 17:46:48;;;;;;;12.4;3.8;;;;;;;;;;;;;
2023/10/09 17:49:14;;;;;;;13.2;4.6;;;;;;;;;;;;;
2023/10/09 17:51:39;;;;;;;16.4;5.5;;;;;;;;;;;;;
2023/10/09 17:56:26;;;;;;;11.2;3.1;;;;;;;20.22;57.22168;942.5327;;;;
2023/10/09 17:58:51;;;;;;;12.2;3.8;;;;;;;20.4;55.67969;942.6685;;;;
2023/10/09 18:01:17;;;;;;;11.7;2.7;;;;;;;20.48;56.32129;942.66;;;;
2023/10/09 18:03:41;;;;;;;8.7;2.6;;;;;;;20.37;56.84473;942.6786;;;;
2023/10/09 18:06:12;;;;;;;8.5;2.8;;;;;;;20.32;56.60352;942.6685;;;;
2023/10/09 18:08:36;;;;;;;13;3.7;;;;;;;20.22;56.61621;942.6939;;;;
2023/10/09 18:11:05;;;;;;;12.1;2.9;;;;;;;20.16;54.91504;942.6262;;;;
2023/10/09 18:13:29;;;;;;;11.8;2.8;;;;;;;20.2;52.7373;942.6505;;;;
2023/10/09 18:15:55;;;;;;;8.4;2.8;;;;;;;20.09;51.7207;942.6228;;;;
2023/10/09 18:18:22;;;;;;;13.8;2.9;;;;;;;20.23;52.12207;942.621;;;;
2023/10/09 18:20:46;;;;;;;8.2;2.7;;;;;;;20.23;52.95117;942.5952;;;;
2023/10/09 18:23:12;;;;;;;11.7;2.4;;;;;;;20.13;51.70215;942.6591;;;;
2023/10/09 18:25:37;;;;;;;11.8;2.6;;;;;;;19.97;53.49316;942.6385;;;;
2023/10/09 18:28:04;;;;;;;8.6;2.4;;;;;;;19.78;53.62012;942.7342;;;;
2023/10/09 18:30:29;;;;;;;11.2;3.1;;;;;;;19.7;53.65723;942.7866;;;;
2023/10/09 18:32:59;;;;;;;10.8;3.5;;;;;;;19.81;53.34375;942.8491;;;;
2023/10/09 18:35:27;;;;;;;14.7;3.2;;;;;;;19.84;53.83789;942.7906;;;;
2023/10/09 18:37:56;;;;;;;9.9;3;;;;;;;19.8;54.26465;942.7781;;;;
2023/10/09 18:40:16;;;;;;;11.1;3;;;;;;;19.88;55.14844;942.8562;;;;
2023/10/09 18:42:40;;;;;;;8.1;3.1;;;;;;;19.87;54.35547;942.866;;;;
2023/10/09 18:45:09;;;;;;;8.3;3.5;;;;;;;19.87;54.89063;942.8208;;;;
2023/10/09 18:47:38;;;;;;;13.6;3.6;;;;;;;19.58;54.5752;942.7876;;;;
2023/10/09 18:50:01;;;;;;;10.4;3.6;;;;;;;19.43;56.875;942.8829;;;;
2023/10/09 18:52:28;;;;;;;12.3;3.6;;;;;;;19.35;56.48047;942.8346;;;;
2023/10/09 18:54:55;;;;;;;11.8;3.9;;;;;;;19.37;56.12305;942.785;;;;
2023/10/09 18:57:23;;;;;;;11.5;3.3;;;;;;;19.4;56.94141;942.7717;;;;
2023/10/09 18:59:48;;;;;;;14.5;3.5;;;;;;;19.29;55.59961;942.8395;;;;
2023/10/09 19:02:13;;;;;;;12.5;3.1;;;;;;;19.42;54.90527;942.9072;;;;
2023/10/09 19:04:39;;;;;;;12.6;3.7;;;;;;;19.49;57.08008;942.8309;;;;
2023/10/09 19:07:05;;;;;;;8.8;3.2;;;;;;;19.45;57.58789;942.8333;;;;
2023/10/09 19:09:31;;;;;;;9.7;3;;;;;;;19.46;57.35645;942.9106;;;;
2023/10/09 19:11:57;;;;;;;9.8;3.4;;;;;;;19.47;58.66406;942.8523;;;;
2023/10/09 19:14:22;;;;;;;13.3;2.8;;;;;;;19.38;56.54199;942.8196;;;;
2023/10/09 19:16:48;;;;;;;13.8;3.8;;;;;;;19.4;56.70898;942.6948;;;;
2023/10/09 19:19:15;;;;;;;10.6;3.7;;;;;;;19.35;55.96777;942.7466;;;;
2023/10/09 19:21:40;;;;;;;14.9;3.9;;;;;;;19.32;56.37207;942.7205;;;;
2023/10/09 19:24:11;;;;;;;11.7;3.5;;;;;;;19.39;57.28906;942.7299;;;;
2023/10/09 19:26:33;;;;;;;9.6;3.8;;;;;;;19.32;60.20508;942.7527;;;;
2023/10/09 19:28:57;;;;;;;13.7;4.7;;;;;;;19.2;59.3252;942.7449;;;;
2023/10/09 19:31:25;;;;;;;9.9;4;;;;;;;19.02;58.73047;942.6958;;;;
2023/10/09 19:33:51;;;;;;;12;4;;;;;;;18.92;59.42773;942.7321;;;;
2023/10/09 19:36:21;;;;;;;16.1;4.2;;;;;;;18.91;59.7998;942.7048;;;;
2023/10/09 19:38:44;;;;;;;10.9;3.3;;;;;;;18.87;59.84082;942.7394;;;;
2023/10/09 19:41:14;;;;;;;13.3;4;;;;;;;18.62;60.80762;942.7642;;;;
2023/10/09 19:43:38;;;;;;;12.7;4.1;;;;;;;18.59;61.46484;942.7483;;;;
2023/10/09 19:46:03;;;;;;;11.4;4.1;;;;;;;18.65;61.51074;942.7551;;;;
2023/10/09 19:48:28;;;;;;;14.6;4;;;;;;;18.47;61.27344;942.8443;;;;
2023/10/09 19:50:56;;;;;;;11.7;3.8;;;;;;;18.47;61.34473;942.8571;;;;
2023/10/09 19:53:18;;;;;;;10.6;3.3;;;;;;;18.46;60.86523;942.821;;;;
2023/10/09 19:55:45;;;;;;;11.8;3.7;;;;;;;18.28;63.57129;942.8425;;;;
2023/10/09 19:58:14;;;;;;;8.5;3.1;;;;;;;18.16;63.67188;942.8517;;;;
2023/10/09 20:00:37;;;;;;;11.2;3.9;;;;;;;18.18;63.13867;943.0014;;;;
2023/10/09 20:03:04;;;;;;;11;3.3;;;;;;;18.2;62.84082;942.9811;;;;
2023/10/09 20:05:29;;;;;;;12;3.4;;;;;;;18.2;62.0625;943.0737;;;;
2023/10/09 20:07:59;;;;;;;9.8;3.4;;;;;;;17.98;63.95996;943.0316;;;;
2023/10/09 20:10:20;;;;;;;11.4;3.9;;;;;;;17.83;64.5293;943.1259;;;;